createdAt,value
2023-01-30T06:53:00.853Z,85.7
2023-01-30T06:54:00.566Z,86.9
2023-01-30T06:55:00.545Z,88.0
2023-01-30T06:56:00.532Z,89.1
2023-01-30T06:57:00.537Z,93.4
2023-01-30T06:58:00.775Z,97.7
2023-01-30T06:59:00.527Z,105.7
2023-01-30T07:01:00.532Z,121.7
2023-01-30T07:02:00.659Z,128.9
2023-01-30T07:03:00.989Z,136.1
2023-01-30T07:04:00.669Z,164.7
2023-01-30T07:06:00.544Z,222.1
2023-01-30T07:07:00.545Z,284.5
2023-01-30T07:08:00.800Z,346.9
2023-01-30T07:09:00.557Z,435.4
2023-01-30T07:11:00.540Z,612.5
2023-01-30T07:12:00.561Z,720.6
2023-01-30T07:13:00.762Z,828.7
2023-01-30T07:14:00.538Z,930.1
2023-01-30T07:16:00.595Z,1132.7
2023-01-30T07:17:00.679Z,1306.6
2023-01-30T07:18:00.745Z,1480.5
2023-01-30T07:19:00.534Z,1615.1
2023-01-30T07:20:00.548Z,1749.7
2023-01-30T07:21:00.544Z,1884.3
2023-01-30T07:22:02.410Z,1895.3
2023-01-30T07:23:00.804Z,1906.4
2023-01-30T07:24:00.538Z,1905.9
2023-01-30T07:25:00.569Z,1905.5
2023-01-30T07:26:00.536Z,1905.0
2023-01-30T07:27:00.551Z,1874.3
2023-01-30T07:28:00.775Z,1843.5
2023-01-30T07:29:01.582Z,1774.7
2023-01-30T07:30:01.359Z,1705.8
2023-01-30T07:31:00.652Z,1636.9
2023-01-30T07:32:00.655Z,1464.8
2023-01-30T07:33:00.950Z,1292.7
2023-01-30T07:34:00.553Z,1141.7
2023-01-30T07:36:00.536Z,839.7
2023-01-30T07:37:00.547Z,823.3
2023-01-30T07:38:01.647Z,807.0
2023-01-30T07:39:00.542Z,785.9
2023-01-30T07:40:00.555Z,764.7
2023-01-30T07:41:00.577Z,743.6
2023-01-30T07:42:00.539Z,682.2
2023-01-30T07:43:00.949Z,620.8
2023-01-30T07:44:00.546Z,603.0
2023-01-30T07:45:01.172Z,585.2
2023-01-30T07:46:00.578Z,567.4
2023-01-30T07:47:00.719Z,612.5
2023-01-30T07:48:01.351Z,657.5
2023-01-30T07:49:00.563Z,786.2
2023-01-30T07:51:00.554Z,1043.5
2023-01-30T07:52:00.539Z,1315.8
2023-01-30T07:53:00.746Z,1588.1
2023-01-30T07:54:00.566Z,1648.1
2023-01-30T07:56:00.818Z,1768.3
2023-01-30T07:57:00.564Z,1827.5
2023-01-30T07:58:01.048Z,1886.7
2023-01-30T07:59:00.561Z,2051.9
2023-01-30T08:00:01.271Z,2217.1
2023-01-30T08:01:00.838Z,2382.3
2023-01-30T08:02:00.795Z,2447.7
2023-01-30T08:03:00.989Z,2513.1
2023-01-30T08:04:00.562Z,2695.8
2023-01-30T08:05:01.549Z,2878.5
2023-01-30T08:06:00.825Z,3061.3
2023-01-30T08:07:00.549Z,3439.0
2023-01-30T08:08:01.734Z,3816.7
2023-01-30T08:09:00.565Z,4464.7
2023-01-30T08:10:01.578Z,5112.6
2023-01-30T08:11:00.545Z,5760.5
2023-01-30T08:12:00.545Z,6459.9
2023-01-30T08:13:00.804Z,7159.3
2023-01-30T08:14:00.571Z,7783.9
2023-01-30T08:15:01.177Z,8408.5
2023-01-30T08:16:00.555Z,9033.1
2023-01-30T08:17:00.557Z,9775.5
2023-01-30T08:18:00.793Z,10517.9
2023-01-30T08:19:00.547Z,11130.8
2023-01-30T08:21:00.554Z,12356.5
2023-01-30T08:22:00.586Z,12672.3
2023-01-30T08:23:00.785Z,12988.1
2023-01-30T08:24:01.359Z,13204.3
2023-01-30T08:25:01.287Z,13420.5
2023-01-30T08:26:00.574Z,13636.7
2023-01-30T08:27:00.560Z,14082.3
2023-01-30T08:28:01.622Z,14527.8
2023-01-30T08:29:00.601Z,14899.1
2023-01-30T08:30:01.191Z,15270.3
2023-01-30T08:31:00.638Z,15641.6
2023-01-30T08:32:00.582Z,15910.7
2023-01-30T08:33:01.154Z,16179.7
2023-01-30T08:34:00.548Z,16357.1
2023-01-30T08:35:00.592Z,16534.5
2023-01-30T08:36:00.577Z,16711.9
2023-01-30T08:37:00.554Z,16840.1
2023-01-30T08:38:00.806Z,16968.2
2023-01-30T08:39:00.548Z,17165.5
2023-01-30T08:40:01.107Z,17362.9
2023-01-30T08:41:00.557Z,17560.2
2023-01-30T08:42:00.555Z,17582.0
2023-01-30T08:43:01.690Z,17603.8
2023-01-30T08:44:00.564Z,17745.3
2023-01-30T08:45:01.208Z,17886.9
2023-01-30T08:46:00.554Z,18028.4
2023-01-30T08:47:00.563Z,18373.0
2023-01-30T08:48:00.791Z,18717.6
2023-01-30T08:49:00.627Z,20318.7
2023-01-30T08:51:00.565Z,23520.8
2023-01-30T08:52:00.622Z,26579.5
2023-01-30T08:53:01.643Z,29638.1
2023-01-30T08:54:00.561Z,32815.8
2023-01-30T08:55:01.260Z,35993.5
2023-01-30T08:56:00.561Z,39171.1
2023-01-30T08:57:00.566Z,42291.9
2023-01-30T08:58:01.815Z,45412.6
2023-01-30T08:59:00.558Z,47003.4
2023-01-30T09:00:01.177Z,48594.2
2023-01-30T09:01:00.640Z,50185.0
2023-01-30T09:02:00.572Z,51098.0
2023-01-30T09:03:00.799Z,52011.0
2023-01-30T09:04:00.562Z,51346.9
2023-01-30T09:05:01.187Z,50682.7
2023-01-30T09:06:00.566Z,50018.6
2023-01-30T09:07:00.575Z,48385.8
2023-01-30T09:08:00.774Z,46753.0
2023-01-30T09:12:00.572Z,46577.0
2023-01-30T09:13:01.606Z,46401.0
2023-01-30T09:14:00.595Z,47849.0
2023-01-30T09:15:01.217Z,49297.0
2023-01-30T09:16:00.571Z,50745.0
2023-01-30T09:17:00.637Z,52354.1
2023-01-30T09:18:01.685Z,53963.1
2023-01-30T09:19:00.601Z,56270.9
2023-01-30T09:20:01.199Z,58578.6
2023-01-30T09:21:00.569Z,60886.3
2023-01-30T09:22:00.579Z,62673.1
2023-01-30T09:23:00.796Z,64459.9
2023-01-30T09:27:00.568Z,64635.9
2023-01-30T09:28:01.792Z,64811.9
2023-01-30T09:29:00.611Z,63744.0
2023-01-30T09:30:01.217Z,62676.1
2023-01-30T09:31:00.744Z,61608.1
2023-01-30T09:32:00.594Z,61969.7
2023-01-30T09:33:01.637Z,62331.2
2023-01-30T09:37:01.027Z,59928.3
2023-01-30T09:38:01.638Z,57525.3
2023-01-30T09:39:00.577Z,54276.5
2023-01-30T09:40:01.197Z,51027.6
2023-01-30T09:41:00.571Z,47778.7
2023-01-30T09:42:00.640Z,44383.9
2023-01-30T09:43:00.820Z,40989.0
2023-01-30T09:44:05.589Z,38567.8
2023-01-30T09:45:01.226Z,36146.6
2023-01-30T09:46:00.629Z,33725.4
2023-01-30T09:47:00.580Z,30306.0
2023-01-30T09:48:01.672Z,26886.6
2023-01-30T09:49:00.620Z,24120.7
2023-01-30T09:50:00.585Z,21354.7
2023-01-30T09:51:00.580Z,18588.8
2023-01-30T09:52:00.600Z,18283.3
2023-01-30T09:53:00.782Z,17977.9
2023-01-30T09:54:01.193Z,18874.0
2023-01-30T09:55:00.698Z,19770.1
2023-01-30T09:56:05.623Z,20666.3
2023-01-30T09:57:00.581Z,22009.1
2023-01-30T09:58:00.781Z,23352.0
2023-01-30T09:59:00.701Z,24759.7
2023-01-30T10:00:01.280Z,26167.5
2023-01-30T10:01:00.573Z,27575.2
2023-01-30T10:02:00.585Z,28366.9
2023-01-30T10:03:01.101Z,29158.5
2023-01-30T10:04:00.616Z,29184.1
2023-01-30T10:06:00.582Z,29235.1
2023-01-30T10:07:00.578Z,29392.7
2023-01-30T10:08:00.829Z,29550.3
2023-01-30T10:09:00.583Z,29861.1
2023-01-30T10:10:00.586Z,30171.9
2023-01-30T10:11:09.470Z,30482.7
2023-01-30T10:12:00.617Z,32395.6
2023-01-30T10:13:01.676Z,34308.5
2023-01-30T10:14:00.596Z,36389.9
2023-01-30T10:15:01.242Z,38471.3
2023-01-30T10:16:00.669Z,40552.7
2023-01-30T10:17:00.580Z,43180.4
2023-01-30T10:18:00.800Z,45808.1
2023-01-30T10:19:00.616Z,48548.5
2023-01-30T10:20:00.602Z,51288.9
2023-01-30T10:21:00.626Z,54029.3
2023-01-30T10:22:00.598Z,54912.8
2023-01-30T10:23:15.590Z,55796.3
2023-01-30T10:24:00.868Z,57838.2
2023-01-30T10:25:01.472Z,59880.1
2023-01-30T10:26:00.594Z,61922.1
2023-01-30T10:47:00.251Z,48155.3
2023-01-30T10:48:00.250Z,48121.5
2023-01-30T10:49:00.232Z,51604.2
2023-01-30T10:50:01.357Z,53926.0
2023-01-30T10:51:00.237Z,55584.4
2023-01-30T10:52:00.230Z,55955.5
2023-01-30T10:53:00.245Z,56244.1
2023-01-30T10:54:00.238Z,54567.1
2023-01-30T10:55:00.765Z,53195.0
2023-01-30T10:56:00.239Z,52051.6
2023-01-30T10:57:00.237Z,50946.1
2023-01-30T10:58:00.243Z,49998.5
2023-01-30T10:59:00.234Z,49287.8
2023-01-30T11:00:02.494Z,48695.5
2023-01-30T11:01:00.286Z,48103.1
2023-01-30T11:02:00.308Z,47613.4
2023-01-30T11:03:00.305Z,47123.7
2023-01-30T11:04:00.237Z,46640.7
2023-01-30T11:05:01.269Z,46157.7
2023-01-30T11:06:00.235Z,45674.7
2023-01-30T11:07:00.253Z,46140.1
2023-01-30T11:08:00.241Z,46605.6
2023-01-30T11:09:00.236Z,47896.0
2023-01-30T11:10:01.411Z,49186.4
2023-01-30T11:11:00.233Z,50476.8
2023-01-30T11:12:00.233Z,51608.1
2023-01-30T11:13:00.241Z,52739.3
2023-01-30T11:14:00.235Z,54485.8
2023-01-30T11:16:00.295Z,57978.7
2023-01-30T11:17:01.289Z,59636.1
2023-01-30T11:18:22.088Z,61293.5
2023-01-30T11:19:29.983Z,61776.5
2023-01-30T11:20:00.433Z,62259.5
2023-01-30T11:21:00.772Z,62742.5
2023-01-30T11:22:00.236Z,62325.1
2023-01-30T11:23:00.235Z,61907.7
2023-01-30T11:24:00.238Z,61126.5
2023-01-30T11:25:00.494Z,60345.3
2023-01-30T11:26:10.293Z,59564.1
2023-01-30T11:27:00.276Z,58712.6
2023-01-30T11:28:00.237Z,57861.1
2023-01-30T11:29:00.233Z,56326.9
2023-01-30T11:30:02.390Z,54792.7
2023-01-30T11:31:00.258Z,53258.5
2023-01-30T11:32:00.362Z,51965.3
2023-01-30T11:33:00.327Z,50672.2
2023-01-30T11:34:00.374Z,49054.7
2023-01-30T11:35:00.663Z,47437.3
2023-01-30T11:36:00.241Z,45819.8
2023-01-30T11:37:00.315Z,44343.1
2023-01-30T11:38:00.245Z,42866.3
2023-01-30T11:39:00.304Z,41941.0
2023-01-30T11:41:00.309Z,40090.3
2023-01-30T11:42:00.275Z,41137.6
2023-01-30T11:43:00.289Z,42184.9
2023-01-30T11:44:00.253Z,43719.1
2023-01-30T11:45:17.970Z,45253.3
2023-01-30T11:46:00.280Z,46787.5
2023-01-30T11:47:00.544Z,48080.6
2023-01-30T11:48:02.952Z,49373.7
2023-01-30T11:49:02.013Z,50991.2
2023-01-30T11:50:15.551Z,52608.7
2023-01-30T11:51:00.451Z,54226.1
2023-01-30T11:52:00.251Z,56120.3
2023-01-30T11:53:00.533Z,58014.4
2023-01-30T12:15:02.249Z,42765.0
2023-01-30T12:17:01.023Z,42681.0
2023-01-30T12:18:11.076Z,42639.0
2023-01-30T12:19:01.353Z,47218.2
2023-01-30T12:20:01.394Z,50271.0
2023-01-30T12:21:00.984Z,52451.6
2023-01-30T12:22:02.090Z,54087.0
2023-01-30T12:23:01.003Z,55359.0
2023-01-30T12:24:01.076Z,56376.6
2023-01-30T12:25:06.908Z,57209.2
2023-01-30T12:26:01.043Z,57903.0
2023-01-30T12:27:01.096Z,58490.1
2023-01-30T12:28:01.032Z,58993.3
2023-01-30T12:29:01.102Z,59429.4
2023-01-30T12:30:07.909Z,60947.4
2023-01-30T12:31:02.101Z,62465.4
2023-01-30T12:32:01.443Z,64000.2
2023-01-30T13:00:33.120Z,65535.0
2023-01-30T13:25:01.556Z,30121.0
2023-01-30T13:27:00.595Z,41925.7
2023-01-30T13:28:00.577Z,47828.0
2023-01-30T13:29:00.685Z,50393.0
2023-01-30T13:30:01.434Z,52103.0
2023-01-30T13:31:00.634Z,53324.4
2023-01-30T13:32:00.699Z,50846.0
2023-01-30T13:33:00.576Z,48918.3
2023-01-30T13:34:00.581Z,47275.9
2023-01-30T13:35:00.791Z,45932.1
2023-01-30T13:36:00.578Z,44812.3
2023-01-30T13:37:00.584Z,44863.3
2023-01-30T13:38:00.578Z,44907.1
2023-01-30T13:39:00.579Z,46282.3
2023-01-30T13:40:00.800Z,48643.2
2023-01-30T13:41:00.603Z,51004.1
2023-01-30T13:42:01.602Z,50443.1
2023-01-30T13:43:00.574Z,49882.0
2023-01-30T13:44:00.579Z,50207.5
2023-01-30T13:45:01.653Z,50532.9
2023-01-30T13:46:00.576Z,50858.4
2023-01-30T13:47:00.704Z,52994.3
2023-01-30T13:48:00.581Z,55130.1
2023-01-30T13:49:00.958Z,56480.8
2023-01-30T13:50:01.662Z,57831.5
2023-01-30T13:51:00.578Z,59182.1
2023-01-30T13:52:00.573Z,59693.5
2023-01-30T13:53:00.580Z,60204.9
2023-01-30T13:54:00.572Z,59962.3
2023-01-30T13:55:01.615Z,59719.6
2023-01-30T13:56:00.577Z,59476.9
2023-01-30T13:57:00.602Z,59666.3
2023-01-30T13:58:00.579Z,59855.7
2023-01-30T13:59:00.577Z,59153.2
2023-01-30T14:01:00.757Z,57748.1
2023-01-30T14:02:00.638Z,57159.9
2023-01-30T14:03:00.591Z,56571.6
2023-01-30T14:04:00.620Z,57423.7
2023-01-30T14:05:00.808Z,58275.7
2023-01-30T14:06:00.604Z,59127.8
2023-01-30T14:07:00.592Z,59953.7
2023-01-30T14:08:00.585Z,60779.5
2023-01-30T14:09:00.588Z,60481.3
2023-01-30T14:10:01.676Z,60183.0
2023-01-30T14:11:00.598Z,59884.7
2023-01-30T14:12:00.588Z,60256.4
2023-01-30T14:13:01.661Z,60628.1
2023-01-30T14:14:00.585Z,61330.6
2023-01-30T14:16:00.660Z,62735.7
2023-01-30T14:17:00.580Z,63323.9
2023-01-30T14:18:00.758Z,63912.2
2023-01-30T14:22:01.869Z,62756.0
2023-01-30T14:23:00.584Z,61599.8
2023-01-30T14:24:00.613Z,60784.0
2023-01-30T14:25:01.222Z,59968.2
2023-01-30T14:26:00.589Z,59152.4
2023-01-30T14:27:00.789Z,57459.4
2023-01-30T14:28:00.687Z,55766.4
2023-01-30T14:29:00.612Z,53681.2
2023-01-30T14:30:01.213Z,51596.0
2023-01-30T14:31:00.626Z,49510.8
2023-01-30T14:32:00.929Z,47992.9
2023-01-30T14:33:00.613Z,46475.1
2023-01-30T14:34:00.625Z,45244.4
2023-01-30T14:35:00.623Z,44013.7
2023-01-30T14:36:00.588Z,42783.1
2023-01-30T14:37:00.793Z,41957.8
2023-01-30T14:38:00.602Z,41132.5
2023-01-30T14:39:00.620Z,40158.1
2023-01-30T14:40:00.679Z,39183.6
2023-01-30T14:41:00.599Z,38209.1
2023-01-30T14:42:01.268Z,37850.4
2023-01-30T14:43:00.591Z,37491.7
2023-01-30T14:44:00.589Z,37595.3
2023-01-30T14:45:01.291Z,37699.0
2023-01-30T14:46:00.603Z,37802.7
2023-01-30T14:47:00.818Z,37700.6
2023-01-30T14:48:01.309Z,37598.5
2023-01-30T14:49:00.596Z,37076.8
2023-01-30T14:50:00.609Z,36555.1
2023-01-30T14:51:00.597Z,36033.3
2023-01-30T14:52:01.575Z,36047.7
2023-01-30T14:53:00.610Z,36062.1
2023-01-30T14:54:00.594Z,35905.7
2023-01-30T14:55:00.618Z,35749.2
2023-01-30T14:56:00.600Z,35592.7
2023-01-30T14:57:01.715Z,35175.3
2023-01-30T14:58:00.600Z,34757.8
2023-01-30T14:59:00.595Z,34440.8
2023-01-30T15:00:18.104Z,34123.8
2023-01-30T15:01:00.685Z,33806.8
2023-01-30T15:02:15.818Z,33142.1
2023-01-30T15:03:00.816Z,32477.3
2023-01-30T15:04:00.624Z,31706.9
2023-01-30T15:05:01.226Z,30936.4
2023-01-30T15:25:02.709Z,15240.0
2023-01-30T15:27:00.523Z,14764.0
2023-01-30T15:28:01.568Z,14526.0
2023-01-30T15:29:00.533Z,14113.4
2023-01-30T15:30:01.678Z,13838.3
2023-01-30T15:31:00.565Z,13641.9
2023-01-30T15:32:00.656Z,13362.4
2023-01-30T15:33:00.522Z,13145.0
2023-01-30T15:34:00.538Z,12836.7
2023-01-30T15:35:06.519Z,12584.5
2023-01-30T15:36:00.609Z,12374.3
2023-01-30T15:37:00.530Z,12090.6
2023-01-30T15:38:00.523Z,11847.5
2023-01-30T15:39:00.531Z,11547.5
2023-01-30T15:40:00.807Z,11021.4
2023-01-30T15:41:00.551Z,10495.3
2023-01-30T15:42:01.572Z,10016.1
2023-01-30T15:43:00.562Z,9536.9
2023-01-30T15:44:00.542Z,9102.2
2023-01-30T15:45:03.550Z,8667.5
2023-01-30T15:46:00.641Z,8232.9
2023-01-30T15:47:00.527Z,7822.8
2023-01-30T15:48:01.595Z,7412.7
2023-01-30T15:49:00.541Z,7048.5
2023-01-30T15:50:01.139Z,6684.2
2023-01-30T15:51:00.552Z,6319.9
2023-01-30T15:52:00.539Z,6006.8
2023-01-30T15:53:00.537Z,5693.7
2023-01-30T15:54:01.558Z,5431.7
2023-01-30T15:55:01.409Z,5169.8
2023-01-30T15:56:00.549Z,4907.9
2023-01-30T15:57:00.564Z,4658.3
2023-01-30T15:58:00.531Z,4408.7
2023-01-30T15:59:00.531Z,4171.3
2023-01-30T16:00:04.552Z,3934.0
2023-01-30T16:01:00.581Z,3696.7
2023-01-30T16:02:00.619Z,3476.1
2023-01-30T16:03:00.540Z,3255.6
2023-01-30T16:04:00.636Z,3052.1
2023-01-30T16:05:02.095Z,2848.5
2023-01-30T16:06:00.535Z,2645.0
2023-01-30T16:07:00.536Z,2458.9
2023-01-30T16:08:00.658Z,2272.9
2023-01-30T16:09:05.819Z,2090.1
2023-01-30T16:10:15.651Z,1907.4
2023-01-30T16:11:00.849Z,1724.7
2023-01-30T16:12:01.571Z,1565.4
2023-01-30T16:13:00.589Z,1406.1
